Accueil
METAR-TAF:

METAR-TAF

Aéroports :

Aéroport de Trévise

Trévise, Italie

latitude: 45-39N, longitude: 012-11E, altitude: 18 m

Observation

Le bulletin a été fait il y a 40 minutes, à 06:50 UTC
Vent 2 kt de direction variable
Température 22°C
Humidité 69%
Pression 1015 hPa
Visibilité 10 km ou plus
pas de nuages en-dessous de 1500 mètres et pas de cumulonimbus.

METAR: LIPH 030650Z VRB02KT CAVOK 22/16 Q1015

Heure: 09:30 (07:30 UTC)

Prévision

Le bulletin a été fait il y a 2 heures et 30 minutes, à 05:00 UTC
Prévision valable du 03 à 06 UTC au 04 à 06 UTC
Vent 10 kt de nord-est
Visibilité 10 km ou plus
Nuages épars à une hauteur de 3000 ft
Evoluant progressivement
du 03 à 06 UTC au 03 à 08 UTC
Vent 5 kt de direction variable
Probabilité 40% :
Temporairement
du 03 à 09 UTC au 03 à 16 UTC
orage, pluie

TAF: LIPH 030500Z 0306/0406 05010KT 9999 SCT030 BECMG 0306/0308 VRB05KT PROB40 TEMPO 0309/0316 TSRA

Observations et prévisions météorologiques de plus de 4000 aéroports (messages METAR et TAF).

Les stations disponibles sont représentées par des disques jaunes et rouges sur la carte.

Passer la souris dessus pour voir le nom de la station.

Cliquer dessus pour voir les observations et prévisions météorologiques.

Pour changer de carte: cliquez sur les boutons verts avec une croix noire pour zoomer, sur le bouton vert avec un tiret pour effectuer un zoom arrière, ou sur les flèches vertes pour les cartes adjacentes.


METAR-TAF: